createdAt,value
2018-06-17T00:01:18.848Z,15.70
2018-06-17T00:03:47.799Z,15.60
2018-06-17T00:06:16.604Z,15.60
2018-06-17T00:08:45.448Z,15.60
2018-06-17T00:11:14.308Z,15.60
2018-06-17T00:13:43.164Z,15.60
2018-06-17T00:16:12.048Z,15.60
2018-06-17T00:18:41.028Z,15.60
2018-06-17T00:21:09.887Z,15.50
2018-06-17T00:23:38.757Z,15.50
2018-06-17T00:26:07.596Z,15.50
2018-06-17T00:28:36.436Z,15.50
2018-06-17T00:31:05.279Z,15.50
2018-06-17T00:33:34.127Z,15.50
2018-06-17T00:36:02.976Z,15.50
2018-06-17T00:38:31.821Z,15.50
2018-06-17T00:41:00.687Z,15.50
2018-06-17T00:43:29.535Z,15.50
2018-06-17T00:45:58.408Z,15.40
2018-06-17T00:48:27.257Z,15.50
2018-06-17T00:50:56.104Z,15.40
2018-06-17T00:53:24.946Z,15.40
2018-06-17T00:55:53.789Z,15.40
2018-06-17T00:58:22.636Z,15.40
2018-06-17T01:00:51.481Z,15.30
2018-06-17T01:03:20.324Z,15.30
2018-06-17T01:05:49.172Z,15.30
2018-06-17T01:08:18.008Z,15.30
2018-06-17T01:10:46.837Z,15.30
2018-06-17T01:13:15.685Z,15.20
2018-06-17T01:15:44.525Z,15.10
2018-06-17T01:18:13.375Z,15.10
2018-06-17T01:20:42.244Z,15.20
2018-06-17T01:23:11.096Z,15.10
2018-06-17T01:25:39.948Z,15.10
2018-06-17T01:28:08.808Z,15.10
2018-06-17T01:30:37.652Z,15.10
2018-06-17T01:33:06.496Z,15.10
2018-06-17T01:35:35.356Z,15.10
2018-06-17T01:38:04.224Z,15.10
2018-06-17T01:40:33.063Z,15.20
2018-06-17T01:43:01.904Z,15.30
2018-06-17T01:45:30.751Z,15.30
2018-06-17T01:47:59.600Z,15.40
2018-06-17T01:50:28.522Z,15.40
2018-06-17T01:52:57.372Z,15.50
2018-06-17T01:55:26.211Z,15.60
2018-06-17T01:57:55.063Z,15.60
2018-06-17T02:00:23.928Z,15.70
2018-06-17T02:02:52.774Z,15.70
2018-06-17T02:05:26.967Z,15.80
2018-06-17T02:08:01.269Z,15.80
2018-06-17T02:10:35.676Z,15.80
2018-06-17T02:13:04.517Z,15.80
2018-06-17T02:15:33.371Z,15.80
2018-06-17T02:18:02.233Z,15.80
2018-06-17T02:20:31.088Z,15.80
2018-06-17T02:22:59.919Z,15.80
2018-06-17T02:25:28.756Z,15.70
2018-06-17T02:27:57.623Z,15.70
2018-06-17T02:30:26.468Z,15.70
2018-06-17T02:32:55.319Z,15.70
2018-06-17T02:35:24.167Z,15.70
2018-06-17T02:37:53.060Z,15.70
2018-06-17T02:40:21.908Z,15.70
2018-06-17T02:42:50.768Z,15.70
2018-06-17T02:45:24.973Z,15.80
2018-06-17T02:47:59.128Z,15.80
2018-06-17T02:50:33.360Z,15.80
2018-06-17T02:53:07.520Z,15.80
2018-06-17T02:55:36.344Z,15.90
2018-06-17T02:58:05.176Z,15.90
2018-06-17T03:00:34.045Z,15.90
2018-06-17T03:03:02.900Z,15.90
2018-06-17T03:05:31.753Z,15.90
2018-06-17T03:08:00.597Z,15.90
2018-06-17T03:10:29.440Z,16.00
2018-06-17T03:12:58.275Z,16.00
2018-06-17T03:15:27.130Z,16.00
2018-06-17T03:17:55.984Z,16.00
2018-06-17T03:20:24.820Z,16.00
2018-06-17T03:22:53.668Z,16.00
2018-06-17T03:25:27.888Z,16.00
2018-06-17T03:28:02.165Z,16.00
2018-06-17T03:30:36.292Z,16.00
2018-06-17T03:33:10.524Z,16.00
2018-06-17T03:35:44.961Z,16.10
2018-06-17T03:38:13.803Z,16.10
2018-06-17T03:40:42.644Z,16.10
2018-06-17T03:43:11.488Z,16.00
2018-06-17T03:45:40.353Z,16.00
2018-06-17T03:48:09.196Z,16.00
2018-06-17T03:50:38.044Z,16.00
2018-06-17T03:53:06.892Z,15.90
2018-06-17T03:55:35.848Z,15.90
2018-06-17T04:00:33.260Z,15.90
2018-06-17T04:03:02.101Z,16.00
2018-06-17T04:05:30.953Z,16.00
2018-06-17T04:08:00.768Z,16.00
2018-06-17T04:10:29.692Z,16.00
2018-06-17T04:12:58.539Z,16.10
2018-06-17T04:15:27.391Z,16.00
2018-06-17T04:17:56.250Z,16.00
2018-06-17T04:20:25.105Z,16.00
2018-06-17T04:22:53.947Z,16.00
2018-06-17T04:25:22.844Z,16.00
2018-06-17T04:27:51.648Z,16.10
2018-06-17T04:30:20.499Z,16.20
2018-06-17T04:32:49.337Z,16.30
2018-06-17T04:35:18.175Z,16.40
2018-06-17T04:37:47.036Z,16.60
2018-06-17T04:40:15.864Z,16.60
2018-06-17T04:42:44.767Z,16.60
2018-06-17T04:45:13.611Z,16.60
2018-06-17T04:47:42.517Z,16.60
2018-06-17T04:50:11.381Z,16.60
2018-06-17T04:52:40.279Z,16.60
2018-06-17T04:55:09.169Z,16.60
2018-06-17T04:57:38.032Z,16.70
2018-06-17T05:00:07.031Z,16.70
2018-06-17T05:02:35.804Z,16.70
2018-06-17T05:05:04.784Z,16.70
2018-06-17T05:07:33.630Z,16.70
2018-06-17T05:10:02.503Z,16.70
2018-06-17T05:12:31.373Z,16.70
2018-06-17T05:15:00.220Z,16.70
2018-06-17T05:17:29.060Z,16.80
2018-06-17T05:19:57.917Z,16.80
2018-06-17T05:22:26.761Z,16.80
2018-06-17T05:24:55.617Z,16.90
2018-06-17T05:27:24.489Z,17.10
2018-06-17T05:29:53.355Z,17.40
2018-06-17T05:32:22.193Z,17.40
2018-06-17T05:34:51.059Z,17.60
2018-06-17T05:37:19.922Z,17.70
2018-06-17T05:42:17.273Z,17.60
2018-06-17T05:44:46.141Z,17.70
2018-06-17T05:47:15.028Z,17.70
2018-06-17T05:49:43.880Z,17.80
2018-06-17T05:52:12.724Z,17.90
2018-06-17T05:54:41.568Z,18.30
2018-06-17T05:57:10.412Z,18.30
2018-06-17T05:59:39.247Z,18.40
2018-06-17T06:02:08.084Z,18.60
2018-06-17T06:04:36.957Z,18.80
2018-06-17T06:07:05.812Z,19.10
2018-06-17T06:12:03.200Z,19.20
2018-06-17T06:14:32.027Z,19.40
2018-06-17T06:19:29.415Z,19.40
2018-06-17T06:21:58.256Z,19.40
2018-06-17T06:24:27.153Z,19.40
2018-06-17T06:26:56.260Z,19.40
2018-06-17T06:29:25.116Z,19.40
2018-06-17T06:31:53.964Z,19.70
2018-06-17T06:34:22.815Z,19.90
2018-06-17T06:36:51.655Z,20.20
2018-06-17T06:39:20.540Z,20.80
2018-06-17T06:41:49.392Z,21.30
2018-06-17T06:44:18.284Z,22.20
2018-06-17T06:46:47.136Z,22.80
2018-06-17T06:49:16.040Z,23.20
2018-06-17T06:51:44.887Z,23.10
2018-06-17T06:54:13.764Z,22.80
2018-06-17T06:56:42.640Z,22.50
2018-06-17T06:59:11.489Z,22.10
2018-06-17T07:01:51.903Z,21.70
2018-06-17T07:04:32.224Z,21.30
2018-06-17T07:07:12.500Z,21.00
2018-06-17T07:09:52.856Z,20.70
2018-06-17T07:12:21.720Z,20.40
2018-06-17T07:14:50.585Z,20.10
2018-06-17T07:17:31.004Z,19.90
2018-06-17T07:19:59.856Z,19.90
2018-06-17T07:22:28.474Z,19.90
2018-06-17T07:24:57.100Z,19.90
2018-06-17T07:27:37.145Z,19.80
2018-06-17T07:30:05.760Z,19.90
2018-06-17T07:32:34.414Z,19.90
2018-06-17T07:35:03.024Z,19.90
2018-06-17T07:37:31.629Z,20.00
2018-06-17T07:41:03.247Z,19.90
2018-06-17T07:43:31.871Z,19.80
2018-06-17T07:46:00.477Z,19.90
2018-06-17T07:49:44.288Z,19.90
2018-06-17T07:52:25.516Z,20.00
2018-06-17T07:54:54.208Z,20.10
2018-06-17T07:57:24.033Z,20.20
2018-06-17T07:59:52.712Z,20.30
2018-06-17T08:02:21.348Z,20.30
2018-06-17T08:04:49.960Z,20.50
2018-06-17T08:07:18.596Z,20.70
2018-06-17T08:09:47.232Z,20.80
2018-06-17T08:12:15.855Z,21.00
2018-06-17T08:14:44.479Z,21.20
2018-06-17T08:17:13.098Z,21.40
2018-06-17T08:19:42.073Z,21.30
2018-06-17T08:22:10.704Z,21.30
2018-06-17T08:24:39.485Z,21.10
2018-06-17T08:27:08.084Z,20.90
2018-06-17T08:29:36.693Z,20.80
2018-06-17T08:32:05.300Z,20.90
2018-06-17T08:34:33.936Z,21.00
2018-06-17T08:37:02.567Z,21.30
2018-06-17T08:39:31.176Z,21.40
2018-06-17T08:41:59.812Z,21.40
2018-06-17T08:44:28.416Z,21.40
2018-06-17T08:46:57.096Z,21.30
2018-06-17T08:49:25.724Z,21.20
2018-06-17T08:51:54.379Z,21.00
2018-06-17T08:54:22.981Z,20.70
2018-06-17T08:56:51.680Z,20.50
2018-06-17T08:59:20.300Z,20.30
2018-06-17T09:01:48.908Z,20.20
2018-06-17T09:04:17.528Z,20.10
2018-06-17T09:09:14.548Z,19.90
2018-06-17T09:14:11.488Z,19.80
2018-06-17T09:16:40.124Z,19.60
2018-06-17T09:19:08.760Z,19.40
2018-06-17T09:21:37.389Z,19.30
2018-06-17T09:24:06.037Z,19.20
2018-06-17T09:29:03.076Z,19.20
2018-06-17T09:31:31.680Z,19.30
2018-06-17T09:34:00.308Z,19.30
2018-06-17T09:36:28.930Z,19.40
2018-06-17T09:38:57.528Z,19.40
2018-06-17T09:41:26.136Z,19.60
2018-06-17T09:43:54.837Z,19.70
2018-06-17T09:46:23.461Z,19.80
2018-06-17T09:48:52.096Z,20.00
2018-06-17T09:51:20.708Z,20.10
2018-06-17T09:53:49.319Z,20.30
2018-06-17T09:56:17.937Z,20.70
2018-06-17T09:58:46.543Z,20.70
2018-06-17T10:01:15.169Z,20.80
2018-06-17T10:03:43.796Z,20.80
2018-06-17T10:06:12.408Z,20.80
2018-06-17T10:08:41.069Z,20.70
2018-06-17T10:11:09.728Z,20.70
2018-06-17T10:13:41.925Z,20.50
2018-06-17T10:16:11.202Z,20.40
2018-06-17T10:18:40.074Z,20.30
2018-06-17T10:21:08.959Z,20.20
2018-06-17T10:26:06.300Z,22.90
2018-06-17T10:28:35.792Z,20.40
2018-06-17T10:31:05.902Z,20.50
2018-06-17T10:33:35.556Z,20.80
2018-06-17T10:36:04.438Z,20.90
2018-06-17T10:41:01.843Z,21.20
2018-06-17T10:43:31.721Z,21.30
2018-06-17T10:46:00.565Z,21.40
2018-06-17T10:48:29.532Z,21.60
2018-06-17T10:50:58.415Z,21.60
2018-06-17T10:53:27.261Z,21.90
2018-06-17T10:55:56.164Z,22.00
2018-06-17T10:58:24.964Z,22.10
2018-06-17T11:00:53.812Z,22.10
2018-06-17T11:03:22.720Z,22.30
2018-06-17T11:05:51.571Z,22.50
2018-06-17T11:08:20.448Z,22.70
2018-06-17T11:10:49.300Z,22.80
2018-06-17T11:13:18.184Z,22.90
2018-06-17T11:15:47.036Z,22.90
2018-06-17T11:18:15.914Z,22.80
2018-06-17T11:20:44.772Z,22.80
2018-06-17T11:23:13.639Z,22.60
2018-06-17T11:25:42.539Z,22.40
2018-06-17T11:28:11.417Z,22.10
2018-06-17T11:30:40.259Z,22.00
2018-06-17T11:33:09.118Z,21.90
2018-06-17T11:35:38.024Z,22.00
2018-06-17T11:40:36.208Z,22.10
2018-06-17T11:43:05.084Z,22.20
2018-06-17T11:45:33.949Z,22.20
2018-06-17T11:48:02.801Z,22.30
2018-06-17T11:50:31.664Z,22.30
2018-06-17T11:53:00.553Z,22.20
2018-06-17T11:55:29.413Z,21.90
2018-06-17T11:57:58.273Z,21.70
2018-06-17T12:00:27.124Z,21.40
2018-06-17T12:02:56.076Z,21.20
2018-06-17T12:05:24.955Z,21.00
2018-06-17T12:07:53.798Z,20.80
2018-06-17T12:10:22.643Z,20.70
2018-06-17T12:12:51.500Z,20.80
2018-06-17T12:15:20.360Z,20.80
2018-06-17T12:17:49.209Z,20.80
2018-06-17T12:20:18.084Z,20.90
2018-06-17T12:22:46.942Z,21.00
2018-06-17T12:25:15.803Z,21.00
2018-06-17T12:27:44.648Z,21.10
2018-06-17T12:30:13.500Z,21.20
2018-06-17T12:32:42.403Z,21.40
2018-06-17T12:35:11.284Z,21.50
2018-06-17T12:37:40.129Z,21.60
2018-06-17T12:40:08.972Z,21.50
2018-06-17T12:42:37.826Z,21.70
2018-06-17T12:45:06.672Z,21.70
2018-06-17T12:47:35.529Z,21.70
2018-06-17T12:50:04.428Z,21.80
2018-06-17T12:52:33.272Z,21.80
2018-06-17T12:55:02.188Z,22.00
2018-06-17T12:57:31.051Z,22.20
2018-06-17T12:59:59.923Z,22.20
2018-06-17T13:02:28.794Z,22.30
2018-06-17T13:04:57.651Z,22.30
2018-06-17T13:07:26.580Z,22.50
2018-06-17T13:09:55.609Z,22.70
2018-06-17T13:12:24.469Z,22.80
2018-06-17T13:14:53.332Z,22.90
2018-06-17T13:17:22.204Z,23.00
2018-06-17T13:19:51.052Z,23.10
2018-06-17T13:22:19.932Z,23.20
2018-06-17T13:24:48.796Z,23.40
2018-06-17T13:27:17.715Z,23.60
2018-06-17T13:29:46.544Z,23.70
2018-06-17T13:32:15.401Z,23.80
2018-06-17T13:34:44.252Z,23.90
2018-06-17T13:37:13.124Z,23.90
2018-06-17T13:39:41.984Z,23.90
2018-06-17T13:42:10.827Z,23.80
2018-06-17T13:44:39.696Z,23.80
2018-06-17T13:47:08.571Z,23.50
2018-06-17T13:49:37.503Z,23.50
2018-06-17T13:52:06.364Z,23.50
2018-06-17T13:54:35.220Z,23.50
2018-06-17T13:57:04.144Z,23.40
2018-06-17T13:59:33.015Z,23.20
2018-06-17T14:02:01.861Z,23.20
2018-06-17T14:04:30.711Z,23.00
2018-06-17T14:06:59.576Z,23.00
2018-06-17T14:09:28.452Z,22.80
2018-06-17T14:11:57.279Z,22.90
2018-06-17T14:14:26.144Z,22.90
2018-06-17T14:16:55.081Z,22.90
2018-06-17T14:19:23.928Z,22.90
2018-06-17T14:21:52.972Z,23.00
2018-06-17T14:24:21.833Z,23.10
2018-06-17T14:26:50.701Z,23.10
2018-06-17T14:29:19.619Z,23.10
2018-06-17T14:31:48.461Z,23.10
2018-06-17T14:34:17.313Z,23.00
2018-06-17T14:36:46.212Z,22.90
2018-06-17T14:39:15.065Z,22.80
2018-06-17T14:41:43.921Z,22.60
2018-06-17T14:44:18.180Z,22.50
2018-06-17T14:46:52.273Z,22.40
2018-06-17T14:49:26.481Z,22.20
2018-06-17T14:52:00.888Z,21.90
2018-06-17T14:54:29.728Z,21.50
2018-06-17T14:56:58.795Z,21.50
2018-06-17T14:59:27.651Z,21.30
2018-06-17T15:01:56.504Z,21.20
2018-06-17T15:04:25.352Z,21.00
2018-06-17T15:06:54.242Z,20.90
2018-06-17T15:09:23.116Z,20.80
2018-06-17T15:11:51.957Z,20.70
2018-06-17T15:14:20.796Z,20.60
2018-06-17T15:16:49.648Z,20.40
2018-06-17T15:19:18.504Z,20.20
2018-06-17T15:21:47.360Z,20.00
2018-06-17T15:24:16.229Z,19.80
2018-06-17T15:26:45.108Z,19.70
2018-06-17T15:29:13.953Z,19.50
2018-06-17T15:31:48.196Z,19.40
2018-06-17T15:34:22.555Z,19.30
2018-06-17T15:36:56.907Z,19.30
2018-06-17T15:39:31.148Z,19.20
2018-06-17T15:42:00.020Z,19.20
2018-06-17T15:44:28.880Z,19.20
2018-06-17T15:46:57.783Z,19.20
2018-06-17T15:49:26.632Z,19.20
2018-06-17T15:51:55.496Z,19.20
2018-06-17T15:56:52.893Z,19.10
2018-06-17T15:59:21.741Z,18.90
2018-06-17T16:01:50.580Z,18.80
2018-06-17T16:04:19.452Z,18.70
2018-06-17T16:06:48.321Z,18.70
2018-06-17T16:09:17.182Z,18.80
2018-06-17T16:12:54.269Z,18.70
2018-06-17T16:15:28.533Z,18.70
2018-06-17T16:18:02.932Z,18.70
2018-06-17T16:20:37.276Z,18.70
2018-06-17T16:23:06.202Z,18.70
2018-06-17T16:25:34.998Z,18.60
2018-06-17T16:28:03.935Z,18.60
2018-06-17T16:30:32.801Z,16.30
2018-06-17T16:33:01.676Z,18.50
2018-06-17T16:35:30.520Z,18.50
2018-06-17T16:37:59.384Z,18.50
2018-06-17T16:42:56.760Z,18.60
2018-06-17T16:45:25.638Z,18.60
2018-06-17T16:47:54.468Z,18.60
2018-06-17T16:50:23.320Z,18.60
2018-06-17T16:52:57.536Z,18.60
2018-06-17T17:00:34.463Z,18.50
2018-06-17T17:03:03.308Z,18.40
2018-06-17T17:05:32.173Z,18.30
2018-06-17T17:08:01.031Z,18.20
2018-06-17T17:12:58.512Z,18.00
2018-06-17T17:15:27.360Z,18.00
2018-06-17T17:17:56.224Z,17.90
2018-06-17T17:20:25.068Z,17.90
2018-06-17T17:22:53.925Z,17.80
2018-06-17T17:25:22.792Z,17.80
2018-06-17T17:27:51.632Z,17.80
2018-06-17T17:30:20.485Z,17.70
2018-06-17T17:32:54.713Z,17.70
2018-06-17T17:35:28.764Z,17.80
2018-06-17T17:38:02.995Z,17.80
2018-06-17T17:40:37.412Z,17.80
2018-06-17T17:43:06.265Z,17.90
2018-06-17T17:45:35.686Z,17.90
2018-06-17T17:48:04.529Z,17.90
2018-06-17T17:50:33.392Z,18.00
2018-06-17T17:53:02.236Z,18.00
2018-06-17T17:55:31.083Z,18.00
2018-06-17T17:57:59.968Z,18.00
2018-06-17T18:00:28.808Z,18.00
2018-06-17T18:02:57.690Z,18.00
2018-06-17T18:05:26.540Z,18.10
2018-06-17T18:07:55.380Z,18.10
2018-06-17T18:10:24.230Z,18.10
2018-06-17T18:12:53.093Z,18.10
2018-06-17T18:15:21.952Z,18.00
2018-06-17T18:17:50.804Z,18.00
2018-06-17T18:22:48.300Z,17.90
2018-06-17T18:25:22.420Z,17.80
2018-06-17T18:27:56.895Z,17.80
2018-06-17T18:30:31.181Z,17.70
2018-06-17T18:33:05.362Z,17.70
2018-06-17T18:35:39.444Z,17.60
2018-06-17T18:38:08.360Z,17.60
2018-06-17T18:40:37.222Z,17.50
2018-06-17T18:43:06.207Z,17.40
2018-06-17T18:45:35.007Z,17.40
2018-06-17T18:48:03.872Z,17.40
2018-06-17T18:50:32.741Z,17.30
2018-06-17T18:53:01.593Z,17.30
2018-06-17T18:55:30.444Z,17.30
2018-06-17T18:57:59.296Z,17.20
2018-06-17T19:00:28.144Z,17.20
2018-06-17T19:02:57.000Z,17.10
2018-06-17T19:05:25.888Z,17.20
2018-06-17T19:07:54.768Z,17.10
2018-06-17T19:10:29.089Z,17.10
2018-06-17T19:13:03.441Z,17.10
2018-06-17T19:15:37.845Z,17.10
2018-06-17T19:18:09.152Z,17.10
2018-06-17T19:20:38.491Z,17.10
2018-06-17T19:23:07.360Z,17.00
2018-06-17T19:25:36.300Z,17.00
2018-06-17T19:28:05.232Z,17.00
2018-06-17T19:30:34.090Z,16.90
2018-06-17T19:33:02.952Z,16.90
2018-06-17T19:35:31.800Z,16.80
2018-06-17T19:38:00.951Z,16.80
2018-06-17T19:40:29.740Z,16.80
2018-06-17T19:42:58.564Z,16.80
2018-06-17T19:45:27.456Z,16.80
2018-06-17T19:47:56.284Z,16.80
2018-06-17T19:50:30.485Z,16.70
2018-06-17T19:53:04.688Z,16.70
2018-06-17T19:55:39.023Z,16.70
2018-06-17T19:58:13.189Z,16.70
2018-06-17T20:00:43.549Z,16.60
2018-06-17T20:03:12.405Z,16.60
2018-06-17T20:05:41.328Z,16.60
2018-06-17T20:08:10.192Z,16.60
2018-06-17T20:10:39.036Z,16.60
2018-06-17T20:13:07.893Z,16.60
2018-06-17T20:15:36.760Z,16.60
2018-06-17T20:18:05.708Z,16.60
2018-06-17T20:20:34.565Z,16.50
2018-06-17T20:23:03.446Z,16.60
2018-06-17T20:25:32.300Z,16.50
2018-06-17T20:28:01.148Z,16.50
2018-06-17T20:30:29.984Z,16.50
2018-06-17T20:33:04.309Z,16.50
2018-06-17T20:35:38.716Z,16.50
2018-06-17T20:38:13.057Z,16.50
2018-06-17T20:40:47.318Z,16.50
2018-06-17T20:43:21.689Z,16.50
2018-06-17T20:45:50.532Z,16.50
2018-06-17T20:48:19.380Z,16.50
2018-06-17T20:53:16.841Z,16.50
2018-06-17T20:55:45.694Z,16.50
2018-06-17T20:58:14.560Z,16.50
2018-06-17T21:00:43.424Z,16.50
2018-06-17T21:03:12.297Z,16.50
2018-06-17T21:05:41.194Z,16.50
2018-06-17T21:08:10.068Z,16.50
2018-06-17T21:13:07.423Z,16.50
2018-06-17T21:18:04.780Z,16.50
2018-06-17T21:20:39.166Z,16.50
2018-06-17T21:23:13.544Z,16.50
2018-06-17T21:25:47.707Z,16.40
2018-06-17T21:28:16.564Z,16.40
2018-06-17T21:30:45.442Z,16.40
2018-06-17T21:33:14.280Z,16.40
2018-06-17T21:35:43.136Z,16.40
2018-06-17T21:38:11.996Z,16.40
2018-06-17T21:40:40.856Z,16.40
2018-06-17T21:43:09.723Z,16.40
2018-06-17T21:45:38.576Z,16.40
2018-06-17T21:48:07.440Z,16.40
2018-06-17T21:50:36.289Z,16.40
2018-06-17T21:53:05.140Z,16.40
2018-06-17T21:55:33.984Z,16.40
2018-06-17T21:58:02.830Z,16.40
2018-06-17T22:00:31.664Z,16.40
2018-06-17T22:03:00.521Z,16.40
2018-06-17T22:09:05.928Z,16.40
2018-06-17T22:11:40.131Z,16.40
2018-06-17T22:14:14.339Z,16.30
2018-06-17T22:16:48.502Z,16.30
2018-06-17T22:19:17.348Z,16.30
2018-06-17T22:21:46.192Z,16.20
2018-06-17T22:24:15.069Z,16.20
2018-06-17T22:26:43.948Z,16.20
2018-06-17T22:29:12.836Z,16.20
2018-06-17T22:31:41.689Z,16.10
2018-06-17T22:34:10.564Z,16.10
2018-06-17T22:36:39.416Z,16.00
2018-06-17T22:39:09.136Z,16.00
2018-06-17T22:41:38.530Z,16.00
2018-06-17T22:44:07.476Z,15.90
2018-06-17T22:46:36.368Z,15.90
2018-06-17T22:49:05.456Z,15.80
2018-06-17T22:51:34.336Z,15.80
2018-06-17T22:54:14.652Z,15.80
2018-06-17T22:56:49.124Z,15.80
2018-06-17T22:59:23.356Z,15.80
2018-06-17T23:02:56.184Z,15.80
2018-06-17T23:05:30.557Z,15.80
2018-06-17T23:08:04.747Z,15.80
2018-06-17T23:10:33.652Z,15.80
2018-06-17T23:13:02.532Z,15.80
2018-06-17T23:15:31.388Z,15.80
2018-06-17T23:18:00.276Z,15.80
2018-06-17T23:20:29.130Z,15.70
2018-06-17T23:22:57.987Z,15.80
2018-06-17T23:25:26.835Z,15.70
2018-06-17T23:27:55.710Z,15.70
2018-06-17T23:30:24.592Z,15.70
2018-06-17T23:32:53.460Z,15.70
2018-06-17T23:35:22.299Z,15.70
2018-06-17T23:37:51.175Z,15.70
2018-06-17T23:40:20.022Z,15.70
2018-06-17T23:42:48.880Z,15.60
2018-06-17T23:45:17.720Z,15.60
2018-06-17T23:47:52.042Z,15.60
2018-06-17T23:50:26.308Z,15.50
2018-06-17T23:53:00.680Z,15.50
2018-06-17T23:55:34.776Z,15.50
2018-06-17T23:58:03.632Z,15.40
